Time;durP1;ratioP1;P1;durP2;ratioP2;P2;SDS_P1;SDS_P2;PMS_P1;PMS_P2;Temp;Humidity;BMP_temperature;BMP_pressure;BME280_temperature;BME280_humidity;BME280_pressure;Samples;Min_cycle;Max_cycle;Signal;HPM_P1;HPM_P2
2023/01/03 00:01:25;;;;;;;3.85;2.10;;;21.20;41.30;;;;;;5037999;28;20060;-50
2023/01/03 00:03:53;;;;;;;2.70;1.90;;;21.20;41.30;;;;;;5035375;28;20037;-53
2023/01/03 00:06:33;;;;;;;2.92;1.85;;;21.20;41.40;;;;;;5036837;28;20051;-52
2023/01/03 00:09:01;;;;;;;4.75;2.20;;;21.20;41.40;;;;;;5023668;28;20087;-55
2023/01/03 00:14:39;;;;;;;3.60;2.25;;;21.20;41.40;;;;;;4948642;28;20491;-54
2023/01/03 00:17:07;;;;;;;3.28;1.90;;;21.20;41.30;;;;;;5019881;28;20045;-53
2023/01/03 00:19:39;;;;;;;2.53;1.90;;;21.20;41.40;;;;;;5031628;28;20041;-53
2023/01/03 00:22:05;;;;;;;4.18;2.05;;;21.20;41.40;;;;;;5037879;28;20109;-51
2023/01/03 00:24:31;;;;;;;2.88;1.67;;;21.20;41.40;;;;;;5033901;28;20348;-54
2023/01/03 00:26:57;;;;;;;3.83;2.10;;;21.10;41.30;;;;;;5033887;28;20095;-54
2023/01/03 00:29:23;;;;;;;3.10;2.22;;;21.10;41.40;;;;;;5037639;28;20099;-53
2023/01/03 00:31:49;;;;;;;4.18;2.20;;;21.10;41.40;;;;;;5032222;28;20472;-52
2023/01/03 00:34:15;;;;;;;3.55;2.22;;;21.20;41.40;;;;;;5043339;28;20078;-56
2023/01/03 00:36:41;;;;;;;3.72;2.05;;;21.10;41.40;;;;;;5036512;28;20025;-53
2023/01/03 00:39:07;;;;;;;3.33;2.20;;;21.10;41.40;;;;;;5039746;28;20029;-56
2023/01/03 00:41:33;;;;;;;5.40;2.20;;;21.10;41.40;;;;;;5035938;28;20025;-50
2023/01/03 00:43:59;;;;;;;3.20;1.88;;;21.10;41.40;;;;;;5037610;28;20051;-54
2023/01/03 00:46:25;;;;;;;3.40;1.80;;;21.10;41.40;;;;;;5036292;28;20437;-55
2023/01/03 00:48:51;;;;;;;3.90;1.85;;;21.10;41.40;;;;;;5038681;28;20029;-56
2023/01/03 00:51:20;;;;;;;3.25;2.38;;;21.10;41.40;;;;;;5045589;28;20016;-55
2023/01/03 00:53:48;;;;;;;3.53;1.80;;;21.10;41.40;;;;;;5037771;28;20067;-51
2023/01/03 00:56:17;;;;;;;2.53;1.90;;;21.10;41.40;;;;;;5039458;28;20064;-52
2023/01/03 00:58:43;;;;;;;4.55;2.00;;;21.00;41.30;;;;;;5040124;28;20777;-53
2023/01/03 01:01:40;;;;;;;1.98;1.42;;;21.10;41.40;;;;;;5045647;28;20029;-57
2023/01/03 01:04:27;;;;;;;2.20;1.90;;;21.00;41.30;;;;;;5018261;28;20053;-52
2023/01/03 01:06:57;;;;;;;3.15;1.60;;;21.00;41.40;;;;;;5036151;28;20404;-54
2023/01/03 01:09:32;;;;;;;2.97;1.92;;;21.00;41.40;;;;;;5035511;28;20033;-56
2023/01/03 01:11:58;;;;;;;2.25;1.60;;;21.00;41.40;;;;;;5041762;28;20116;-58
2023/01/03 01:14:26;;;;;;;2.20;1.83;;;21.00;41.40;;;;;;5033063;28;20112;-56
2023/01/03 01:17:02;;;;;;;4.22;2.17;;;21.00;41.40;;;;;;5039504;28;20032;-58
2023/01/03 01:19:33;;;;;;;2.88;2.05;;;21.00;41.40;;;;;;5036097;28;20034;-54
2023/01/03 01:21:59;;;;;;;2.17;1.60;;;21.00;41.40;;;;;;5034974;28;20034;-54
2023/01/03 01:24:25;;;;;;;4.05;2.30;;;21.00;41.50;;;;;;5040932;28;20039;-55
2023/01/03 01:26:51;;;;;;;2.85;1.83;;;21.00;41.50;;;;;;5041075;28;20056;-56
2023/01/03 01:29:18;;;;;;;3.38;2.03;;;21.00;41.50;;;;;;5036558;28;20026;-56
2023/01/03 01:31:45;;;;;;;3.17;1.90;;;21.00;41.50;;;;;;5022381;28;20456;-56
2023/01/03 01:34:11;;;;;;;3.33;2.15;;;21.00;41.50;;;;;;5038548;28;20034;-57
2023/01/03 01:36:40;;;;;;;2.80;1.90;;;21.00;41.50;;;;;;5035693;28;20033;-56
2023/01/03 01:39:10;;;;;;;3.55;2.00;;;21.00;41.50;;;;;;5044664;28;20111;-55
2023/01/03 01:44:39;;;;;;;2.40;1.80;;;21.00;41.60;;;;;;5038805;28;20037;-52
2023/01/03 01:47:29;;;;;;;2.75;1.95;;;20.90;41.50;;;;;;5039738;28;20028;-54
2023/01/03 01:50:03;;;;;;;2.28;1.80;;;21.00;41.60;;;;;;5036009;28;20037;-56
2023/01/03 01:52:30;;;;;;;;;;;21.00;41.60;;;;;;5038788;28;20036;-56
2023/01/03 01:55:00;;;;;;;3.50;2.05;;;20.90;41.50;;;;;;5033976;28;19968;-53
2023/01/03 01:57:28;;;;;;;2.58;1.90;;;20.90;41.60;;;;;;5031329;28;20048;-53
2023/01/03 01:59:54;;;;;;;3.05;1.80;;;20.90;41.60;;;;;;5034501;28;20064;-56
2023/01/03 02:02:22;;;;;;;4.03;2.40;;;20.90;41.60;;;;;;5041229;28;20053;-54
2023/01/03 02:04:52;;;;;;;3.30;2.10;;;20.90;41.60;;;;;;5035610;28;20096;-56
2023/01/03 02:07:20;;;;;;;2.55;1.88;;;20.90;41.60;;;;;;5036162;28;20121;-57
2023/01/03 02:09:47;;;;;;;2.28;1.60;;;20.90;41.60;;;;;;5038599;28;20025;-58
2023/01/03 02:15:44;;;;;;;3.03;1.80;;;20.80;41.60;;;;;;5034589;28;20049;-58
2023/01/03 02:18:22;;;;;;;2.00;1.60;;;20.90;41.60;;;;;;5038895;28;20029;-56
2023/01/03 02:21:08;;;;;;;2.55;1.85;;;20.80;41.50;;;;;;5040370;28;20033;-55
2023/01/03 02:23:46;;;;;;;3.13;1.70;;;20.90;41.60;;;;;;5035009;28;20030;-56
2023/01/03 02:26:21;;;;;;;2.60;1.80;;;20.80;41.60;;;;;;5026827;28;20036;-54
2023/01/03 02:28:59;;;;;;;4.35;1.92;;;20.80;41.60;;;;;;5034274;28;20090;-55
2023/01/03 02:32:00;;;;;;;2.80;1.92;;;20.80;41.60;;;;;;5034611;28;20504;-55
2023/01/03 02:34:44;;;;;;;3.05;2.00;;;20.80;41.60;;;;;;4965583;28;20042;-51
2023/01/03 02:37:39;;;;;;;3.33;2.00;;;20.80;41.60;;;;;;5025712;28;20069;-53
2023/01/03 02:40:19;;;;;;;3.28;1.95;;;20.80;41.60;;;;;;5037427;28;20061;-54
2023/01/03 02:43:05;;;;;;;2.00;1.50;;;20.80;41.60;;;;;;5031509;28;20025;-57
2023/01/03 02:45:52;;;;;;;2.00;1.73;;;20.80;41.70;;;;;;5035715;28;20026;-56
2023/01/03 02:48:34;;;;;;;2.70;1.73;;;20.80;41.70;;;;;;5035960;28;20445;-57
2023/01/03 02:51:04;;;;;;;2.95;2.20;;;20.70;41.70;;;;;;5033326;28;20453;-56
2023/01/03 02:53:36;;;;;;;2.60;1.95;;;20.70;41.70;;;;;;5038847;28;20037;-56
2023/01/03 02:56:11;;;;;;;2.70;1.77;;;20.80;41.70;;;;;;5035115;28;20033;-48
2023/01/03 02:58:39;;;;;;;2.95;1.70;;;20.80;41.70;;;;;;5040278;28;20029;-55
2023/01/03 03:01:07;;;;;;;2.35;1.80;;;20.80;41.70;;;;;;5035114;28;20033;-55
2023/01/03 03:03:37;;;;;;;2.60;1.70;;;20.80;41.80;;;;;;5036591;28;20334;-55
2023/01/03 03:06:43;;;;;;;4.10;2.00;;;20.80;41.90;;;;;;5032977;28;20078;-49
2023/01/03 03:09:09;;;;;;;2.40;1.90;;;20.70;41.80;;;;;;5034161;28;20037;-55
2023/01/03 03:14:35;;;;;;;3.83;2.25;;;20.80;41.80;;;;;;5036640;28;20030;-55
2023/01/03 03:17:07;;;;;;;2.53;1.95;;;20.70;41.70;;;;;;5031825;28;20037;-57
2023/01/03 03:25:47;;;;;;;4.47;2.38;;;20.70;41.70;;;;;;4954856;28;20391;-53
2023/01/03 03:28:34;;;;;;;2.78;2.03;;;20.70;41.70;;;;;;5035497;28;20353;-53
2023/01/03 03:31:08;;;;;;;3.38;2.08;;;20.70;41.70;;;;;;5035546;28;20447;-53
2023/01/03 03:33:50;;;;;;;3.08;2.20;;;20.70;41.70;;;;;;5032653;28;20021;-54
2023/01/03 03:36:39;;;;;;;3.15;2.40;;;20.70;41.70;;;;;;5026624;28;20052;-55
2023/01/03 03:44:59;;;;;;;2.65;2.15;;;20.60;41.60;;;;;;5040948;28;20037;-55
2023/01/03 03:45:00;;;;;;;3.20;2.53;;;20.70;41.70;;;;;;5039748;28;20359;-54
2023/01/03 03:47:47;;;;;;;4.00;2.50;;;20.70;41.70;;;;;;5035358;28;20087;-54
2023/01/03 03:50:17;;;;;;;3.45;2.90;;;20.60;41.60;;;;;;5042713;28;20112;-57
2023/01/03 03:52:46;;;;;;;2.75;2.30;;;20.60;41.60;;;;;;5030608;28;20044;-50
2023/01/03 03:55:20;;;;;;;3.55;2.50;;;20.60;41.60;;;;;;5034703;28;20041;-51
2023/01/03 03:58:18;;;;;;;;;;;20.60;41.60;;;;;;5034087;28;20029;-53
2023/01/03 04:00:47;;;;;;;2.85;2.00;;;20.60;41.60;;;;;;4993122;28;19912;-53
2023/01/03 04:03:16;;;;;;;3.33;2.22;;;20.60;41.60;;;;;;5030987;28;20026;-56
2023/01/03 04:05:47;;;;;;;4.72;2.60;;;20.60;41.60;;;;;;5038353;28;20441;-56
2023/01/03 04:08:13;;;;;;;3.78;2.25;;;20.60;41.60;;;;;;5037355;28;20055;-58
2023/01/03 04:10:41;;;;;;;4.68;2.83;;;20.60;41.60;;;;;;5035859;28;20457;-54
2023/01/03 04:13:07;;;;;;;3.05;2.50;;;20.60;41.60;;;;;;5031796;28;20124;-56
2023/01/03 04:15:33;;;;;;;4.03;2.42;;;20.60;41.60;;;;;;5033722;28;20600;-55
2023/01/03 04:18:01;;;;;;;2.90;2.30;;;20.60;41.60;;;;;;5044952;28;20078;-55
2023/01/03 04:20:28;;;;;;;3.22;2.40;;;20.60;41.60;;;;;;5035987;28;20048;-54
2023/01/03 04:22:54;;;;;;;4.60;2.30;;;20.60;41.60;;;;;;5042726;28;20031;-54
2023/01/03 04:25:20;;;;;;;3.25;2.13;;;20.60;41.50;;;;;;5038491;28;20045;-51
2023/01/03 04:27:46;;;;;;;2.70;2.10;;;20.60;41.50;;;;;;5036084;28;20293;-53
2023/01/03 04:30:12;;;;;;;2.90;2.00;;;20.60;41.50;;;;;;5036740;28;20035;-53
2023/01/03 04:32:38;;;;;;;2.53;1.80;;;20.60;41.40;;;;;;5044731;28;20024;-53
2023/01/03 04:35:04;;;;;;;2.67;1.77;;;20.60;41.40;;;;;;5041677;28;20441;-55
2023/01/03 04:37:30;;;;;;;3.50;1.95;;;20.60;41.40;;;;;;5036389;28;20112;-56
2023/01/03 04:39:56;;;;;;;2.45;1.50;;;20.60;41.30;;;;;;5025227;28;20030;-55
2023/01/03 04:45:07;;;;;;;2.90;1.60;;;20.50;41.30;;;;;;5041575;28;20030;-55
2023/01/03 04:47:33;;;;;;;2.83;1.50;;;20.50;41.20;;;;;;5014586;28;20044;-50
2023/01/03 04:49:59;;;;;;;2.10;1.40;;;20.50;41.20;;;;;;5031236;28;20025;-55
2023/01/03 04:52:25;;;;;;;2.97;1.52;;;20.50;41.20;;;;;;5038493;28;20057;-53
2023/01/03 04:54:50;;;;;;;2.13;1.70;;;20.50;41.10;;;;;;5038049;28;20076;-54
2023/01/03 04:57:16;;;;;;;2.30;1.58;;;20.50;41.10;;;;;;5038378;28;20090;-50
2023/01/03 04:59:42;;;;;;;3.30;1.85;;;20.50;41.00;;;;;;5039474;28;20410;-52
2023/01/03 05:02:08;;;;;;;3.70;1.60;;;20.50;41.10;;;;;;5039983;28;20445;-54
2023/01/03 05:04:34;;;;;;;2.15;1.60;;;20.50;41.00;;;;;;5032089;28;20041;-57
2023/01/03 05:07:00;;;;;;;2.35;1.35;;;20.50;41.00;;;;;;5035841;28;20029;-52
2023/01/03 05:09:26;;;;;;;2.30;1.30;;;20.50;40.90;;;;;;5038346;28;20028;-58
2023/01/03 05:11:53;;;;;;;2.15;1.40;;;20.50;40.90;;;;;;5040628;28;20534;-54
2023/01/03 05:14:18;;;;;;;3.45;1.83;;;20.50;40.90;;;;;;5038568;28;20033;-58
2023/01/03 05:16:44;;;;;;;2.80;1.75;;;20.50;40.80;;;;;;5036047;28;20061;-54
2023/01/03 05:19:10;;;;;;;2.50;1.60;;;20.50;40.80;;;;;;5039381;28;20113;-54
2023/01/03 05:27:06;;;;;;;2.78;1.70;;;20.50;40.80;;;;;;5038678;28;20153;-52
2023/01/03 05:29:35;;;;;;;4.28;1.63;;;20.50;40.70;;;;;;5036595;28;20116;-51
2023/01/03 05:32:01;;;;;;;1.92;1.50;;;20.50;40.70;;;;;;5037342;28;20060;-56
2023/01/03 05:34:27;;;;;;;3.25;1.40;;;20.50;40.60;;;;;;5042190;28;20057;-56
2023/01/03 05:36:53;;;;;;;3.70;1.70;;;20.40;40.60;;;;;;5037913;28;20045;-56
2023/01/03 05:39:19;;;;;;;1.67;1.42;;;20.40;40.60;;;;;;5027808;28;20060;-56
2023/01/03 05:42:00;;;;;;;3.47;1.40;;;20.40;40.50;;;;;;5031520;28;20035;-55
2023/01/03 05:44:29;;;;;;;1.90;1.33;;;20.40;40.50;;;;;;5041821;28;20246;-57
2023/01/03 05:46:57;;;;;;;1.98;1.33;;;20.40;40.50;;;;;;5014157;28;20037;-57
2023/01/03 05:49:23;;;;;;;2.97;1.20;;;20.40;40.40;;;;;;5043823;28;20033;-53
2023/01/03 05:51:48;;;;;;;2.50;1.23;;;20.40;40.40;;;;;;5035988;28;20036;-59
2023/01/03 05:54:16;;;;;;;2.97;1.58;;;20.40;40.40;;;;;;5037006;28;20330;-56
2023/01/03 05:56:42;;;;;;;4.55;1.88;;;20.40;40.40;;;;;;5041572;28;20117;-55
2023/01/03 05:59:08;;;;;;;1.98;1.45;;;20.40;40.40;;;;;;5027572;28;20108;-55
2023/01/03 06:01:35;;;;;;;2.80;1.58;;;20.40;40.50;;;;;;5041537;28;20209;-58
2023/01/03 06:04:01;;;;;;;4.15;1.45;;;20.40;40.40;;;;;;5033839;28;20114;-53
2023/01/03 06:06:27;;;;;;;3.13;1.55;;;20.40;40.40;;;;;;5039916;28;20039;-56
2023/01/03 06:08:53;;;;;;;3.40;1.67;;;20.40;40.30;;;;;;5034210;28;20033;-56
2023/01/03 06:11:20;;;;;;;2.63;1.70;;;20.40;40.30;;;;;;5033330;28;20045;-57
2023/01/03 06:13:45;;;;;;;2.10;1.45;;;20.40;40.20;;;;;;5033767;28;20057;-55
2023/01/03 06:19:00;;;;;;;2.58;1.38;;;20.40;40.20;;;;;;5037624;28;20041;-54
2023/01/03 06:21:26;;;;;;;2.95;1.60;;;20.40;40.20;;;;;;5031663;28;20028;-53
2023/01/03 06:23:52;;;;;;;3.30;1.50;;;20.30;40.10;;;;;;5033447;28;20033;-51
2023/01/03 06:26:22;;;;;;;3.55;1.23;;;20.30;40.10;;;;;;5028611;28;20028;-54
2023/01/03 06:28:49;;;;;;;4.18;1.85;;;20.30;40.10;;;;;;5031421;28;20475;-58
2023/01/03 06:31:15;;;;;;;2.15;1.40;;;20.30;40.10;;;;;;5032862;28;20043;-57
2023/01/03 06:33:41;;;;;;;2.35;1.35;;;20.30;40.10;;;;;;5024507;28;20358;-56
2023/01/03 06:36:09;;;;;;;2.13;1.40;;;20.30;40.10;;;;;;5031334;28;20038;-54
2023/01/03 06:38:35;;;;;;;2.53;1.50;;;20.30;40.10;;;;;;5025325;28;20341;-53
2023/01/03 06:41:02;;;;;;;2.95;1.80;;;20.30;40.00;;;;;;5030063;28;21028;-55
2023/01/03 06:43:28;;;;;;;3.80;1.90;;;20.30;40.10;;;;;;5026436;28;20028;-54
2023/01/03 06:54:23;;;;;;;3.22;1.98;;;20.30;40.10;;;;;;5027895;28;20034;-56
2023/01/03 06:56:50;;;;;;;2.83;1.73;;;20.30;40.10;;;;;;5027655;28;20033;-55
2023/01/03 06:59:17;;;;;;;4.53;1.85;;;20.20;40.00;;;;;;5026894;28;20441;-53
2023/01/03 07:01:47;;;;;;;2.90;1.70;;;20.30;40.10;;;;;;5027639;28;20034;-56
2023/01/03 07:04:14;;;;;;;2.97;1.75;;;20.20;40.00;;;;;;5010460;28;20024;-56
2023/01/03 07:06:41;;;;;;;5.10;1.85;;;20.20;40.00;;;;;;5024481;28;20119;-57
2023/01/03 07:09:08;;;;;;;4.95;1.70;;;20.20;40.00;;;;;;5027518;28;20052;-56
2023/01/03 07:11:34;;;;;;;2.40;1.30;;;20.20;40.00;;;;;;5026622;28;20029;-56
2023/01/03 07:14:02;;;;;;;3.38;1.65;;;20.20;39.90;;;;;;5027503;28;20036;-55
2023/01/03 07:16:36;;;;;;;3.38;1.45;;;20.20;39.90;;;;;;5030061;28;20033;-56
2023/01/03 07:19:05;;;;;;;2.35;1.35;;;20.20;39.90;;;;;;5026519;28;20049;-52
2023/01/03 07:21:33;;;;;;;2.42;1.77;;;20.20;39.90;;;;;;5025822;28;20084;-58
2023/01/03 07:24:02;;;;;;;2.15;1.40;;;20.20;39.90;;;;;;5027020;28;20084;-56
2023/01/03 07:26:31;;;;;;;2.05;1.40;;;20.20;39.90;;;;;;5024090;28;20029;-53
2023/01/03 07:29:01;;;;;;;1.50;1.15;;;20.20;39.90;;;;;;5024152;28;20033;-56
2023/01/03 07:31:27;;;;;;;3.65;1.48;;;20.20;39.90;;;;;;5025173;28;20029;-52
2023/01/03 07:33:53;;;;;;;2.80;1.48;;;20.20;39.90;;;;;;5015522;28;20026;-52
2023/01/03 07:36:20;;;;;;;3.10;1.48;;;20.20;39.90;;;;;;5017983;28;20037;-55
2023/01/03 07:38:47;;;;;;;2.50;1.40;;;20.20;39.90;;;;;;5012788;28;20030;-54
2023/01/03 07:41:13;;;;;;;2.88;1.50;;;20.20;39.90;;;;;;5013665;28;20099;-56
2023/01/03 07:43:43;;;;;;;3.33;1.30;;;20.20;39.90;;;;;;5018364;28;20026;-51
2023/01/03 07:46:13;;;;;;;2.80;1.50;;;20.20;39.90;;;;;;5013778;28;20032;-54
2023/01/03 07:48:40;;;;;;;1.95;1.27;;;20.20;39.90;;;;;;5020694;28;20025;-57
2023/01/03 07:51:07;;;;;;;5.70;1.35;;;20.20;40.00;;;;;;5016306;28;20026;-57
2023/01/03 07:53:35;;;;;;;1.55;1.10;;;20.20;40.10;;;;;;5001355;28;20055;-50
2023/01/03 07:56:13;;;;;;;2.25;1.10;;;20.20;40.20;;;;;;5004330;28;20126;-57
2023/01/03 07:58:40;;;;;;;2.67;1.23;;;20.20;40.40;;;;;;5020022;28;20159;-52
2023/01/03 08:01:08;;;;;;;2.33;1.30;;;20.20;40.50;;;;;;5016623;28;20369;-55
2023/01/03 08:03:35;;;;;;;1.85;1.25;;;20.20;40.70;;;;;;5018912;28;20049;-58
2023/01/03 08:06:07;;;;;;;2.13;1.15;;;20.30;40.80;;;;;;5012599;28;20034;-57
2023/01/03 08:08:33;;;;;;;1.75;1.00;;;20.30;40.90;;;;;;5017449;28;20026;-56
2023/01/03 08:13:44;;;;;;;;;;;20.40;40.90;;;;;;5033105;28;20046;-56
2023/01/03 08:16:13;;;;;;;3.42;1.10;;;20.40;40.80;;;;;;5048703;28;20366;-56
2023/01/03 08:18:40;;;;;;;2.42;1.00;;;20.50;40.80;;;;;;5039094;28;20068;-55
2023/01/03 08:21:08;;;;;;;2.20;1.05;;;20.50;40.70;;;;;;5034557;28;20113;-52
2023/01/03 08:23:34;;;;;;;2.13;1.08;;;20.60;40.60;;;;;;5016853;28;20120;-55
2023/01/03 08:26:11;;;;;;;2.00;1.10;;;20.60;40.50;;;;;;5017346;28;20139;-56
2023/01/03 08:28:38;;;;;;;2.33;1.20;;;20.70;40.50;;;;;;5018647;28;20042;-58
2023/01/03 08:31:19;;;;;;;3.50;1.10;;;20.70;40.40;;;;;;5014488;28;20453;-52
2023/01/03 08:34:00;;;;;;;2.70;1.10;;;20.80;40.30;;;;;;5013601;28;20137;-54
2023/01/03 08:36:31;;;;;;;2.38;1.05;;;20.80;40.30;;;;;;5013980;28;20397;-55
2023/01/03 08:39:03;;;;;;;1.83;0.93;;;20.90;40.20;;;;;;5013090;28;20456;-55
2023/01/03 08:41:32;;;;;;;4.10;1.40;;;21.00;40.20;;;;;;5011997;28;20080;-53
2023/01/03 08:44:00;;;;;;;2.88;1.05;;;21.00;40.00;;;;;;5013593;28;20100;-56
2023/01/03 08:46:27;;;;;;;1.38;0.90;;;21.10;40.00;;;;;;5017471;28;20048;-55
2023/01/03 08:48:55;;;;;;;1.70;1.10;;;21.10;39.90;;;;;;5013778;28;20460;-55
2023/01/03 08:51:23;;;;;;;1.42;1.05;;;21.20;39.90;;;;;;5014281;28;20319;-57
2023/01/03 08:53:49;;;;;;;2.55;1.05;;;21.20;39.90;;;;;;5013428;28;20022;-57
2023/01/03 08:56:17;;;;;;;1.70;0.98;;;21.30;39.90;;;;;;5016389;28;21516;-53
2023/01/03 08:58:43;;;;;;;1.23;0.90;;;21.30;39.90;;;;;;5018008;28;20033;-59
2023/01/03 09:01:10;;;;;;;1.88;1.00;;;21.40;39.80;;;;;;5020226;28;20037;-54
2023/01/03 09:03:36;;;;;;;1.17;0.70;;;21.40;39.80;;;;;;5027516;28;20033;-57
2023/01/03 09:06:03;;;;;;;2.17;1.02;;;21.40;39.80;;;;;;5039308;28;20021;-56
2023/01/03 09:08:30;;;;;;;3.55;1.15;;;21.50;39.70;;;;;;5037067;28;20021;-55
2023/01/03 09:10:57;;;;;;;2.50;1.13;;;21.50;39.60;;;;;;5035709;28;20540;-57
2023/01/03 09:13:24;;;;;;;2.35;1.00;;;21.60;39.60;;;;;;5035647;28;20455;-53
2023/01/03 09:15:50;;;;;;;2.50;1.10;;;21.60;39.60;;;;;;5037324;28;20136;-56
2023/01/03 09:18:15;;;;;;;1.90;0.90;;;21.60;39.50;;;;;;5035695;28;20120;-54
2023/01/03 09:20:41;;;;;;;2.45;1.10;;;21.70;39.40;;;;;;5035902;28;20449;-55
2023/01/03 09:23:07;;;;;;;2.72;1.00;;;21.70;39.30;;;;;;5035532;28;20094;-54
2023/01/03 09:25:33;;;;;;;1.65;0.88;;;21.70;39.30;;;;;;5035700;28;20056;-53
2023/01/03 09:27:59;;;;;;;2.20;0.90;;;21.80;39.20;;;;;;5035530;28;20056;-55
2023/01/03 09:30:24;;;;;;;2.13;1.02;;;21.80;39.20;;;;;;5019033;28;20032;-51
2023/01/03 09:32:50;;;;;;;1.58;0.80;;;21.80;39.70;;;;;;5035985;28;20026;-53
2023/01/03 09:35:16;;;;;;;1.67;0.88;;;21.80;39.10;;;;;;5035189;28;20108;-51
2023/01/03 09:37:45;;;;;;;1.95;1.10;;;21.90;39.10;;;;;;5035363;28;20030;-55
2023/01/03 09:40:11;;;;;;;1.48;0.80;;;21.90;39.10;;;;;;5035497;28;20033;-55
2023/01/03 09:45:33;;;;;;;2.03;1.15;;;21.90;39.60;;;;;;5034138;28;20033;-56
2023/01/03 09:48:02;;;;;;;2.40;1.08;;;21.90;39.00;;;;;;5034048;28;20452;-57
2023/01/03 09:50:33;;;;;;;1.58;0.85;;;21.90;39.00;;;;;;5034985;28;20025;-55
2023/01/03 10:04:16;;;;;;;2.05;0.93;;;22.00;39.10;;;;;;5034971;28;19948;-57
2023/01/03 10:07:24;;;;;;;1.48;0.90;;;21.90;39.30;;;;;;5032634;28;20071;-55
2023/01/03 10:10:00;;;;;;;1.52;0.90;;;21.90;39.40;;;;;;5034062;28;20033;-55
2023/01/03 10:12:31;;;;;;;1.58;1.00;;;21.90;39.50;;;;;;5033424;28;20480;-49
2023/01/03 10:15:18;;;;;;;1.85;1.00;;;21.90;39.50;;;;;;5033367;28;20041;-56
2023/01/03 10:18:22;;;;;;;2.15;0.80;;;21.90;39.60;;;;;;5032844;28;20395;-55
2023/01/03 10:20:52;;;;;;;3.70;1.02;;;21.90;39.60;;;;;;4984986;28;20389;-57
2023/01/03 10:23:19;;;;;;;1.27;1.00;;;21.90;39.70;;;;;;5033754;28;20031;-52
2023/01/03 10:25:46;;;;;;;2.58;1.00;;;21.90;39.80;;;;;;5034926;28;20357;-57
2023/01/03 10:28:16;;;;;;;1.65;0.82;;;21.90;39.80;;;;;;5016433;28;20033;-54
2023/01/03 10:30:48;;;;;;;2.47;1.08;;;21.90;39.80;;;;;;5034139;28;20102;-53
2023/01/03 10:33:27;;;;;;;1.75;0.90;;;21.90;39.80;;;;;;5034194;28;20030;-55
2023/01/03 10:35:55;;;;;;;2.78;1.08;;;21.90;39.90;;;;;;5032081;28;20453;-59
2023/01/03 10:38:22;;;;;;;2.53;1.00;;;21.90;39.90;;;;;;5033856;28;20060;-58
2023/01/03 10:40:58;;;;;;;1.67;1.00;;;21.90;39.90;;;;;;5016852;28;20464;-55
2023/01/03 10:43:42;;;;;;;2.08;0.82;;;21.90;40.00;;;;;;5034424;28;20330;-55
2023/01/03 10:46:16;;;;;;;1.30;0.80;;;21.90;40.00;;;;;;5033316;28;20461;-53
2023/01/03 10:48:44;;;;;;;1.90;0.80;;;21.90;40.00;;;;;;5033276;28;20021;-53
2023/01/03 10:51:34;;;;;;;2.30;0.70;;;21.90;40.00;;;;;;5033873;28;20383;-56
2023/01/03 10:54:10;;;;;;;1.65;0.88;;;21.90;40.10;;;;;;5033467;28;20029;-55
2023/01/03 10:56:36;;;;;;;1.77;0.77;;;21.90;40.10;;;;;;5023383;28;20052;-52
2023/01/03 10:59:23;;;;;;;1.48;0.90;;;21.80;40.10;;;;;;5026415;28;20033;-56
2023/01/03 11:02:13;;;;;;;1.98;0.80;;;21.80;40.20;;;;;;5025287;28;20029;-53
2023/01/03 11:04:40;;;;;;;1.63;0.75;;;21.80;40.30;;;;;;5009310;28;20111;-56
2023/01/03 11:07:11;;;;;;;0.98;0.63;;;21.80;40.30;;;;;;5028068;28;20037;-54
2023/01/03 11:09:55;;;;;;;1.50;0.80;;;21.80;40.40;;;;;;5024974;28;20041;-55
2023/01/03 11:12:38;;;;;;;1.83;1.00;;;21.80;40.30;;;;;;5022049;28;20060;-49
2023/01/03 11:15:14;;;;;;;1.25;0.90;;;21.80;40.30;;;;;;5008835;28;20037;-52
2023/01/03 11:17:51;;;;;;;1.67;0.90;;;21.80;40.30;;;;;;5021662;28;20063;-51
2023/01/03 11:20:18;;;;;;;0.95;0.73;;;21.80;40.30;;;;;;5022293;28;20468;-55
2023/01/03 11:22:53;;;;;;;3.58;0.77;;;21.80;40.40;;;;;;5025917;28;20025;-53
2023/01/03 11:25:40;;;;;;;1.73;0.77;;;21.80;40.30;;;;;;5010791;28;20042;-54
2023/01/03 11:28:17;;;;;;;2.38;0.90;;;21.80;40.30;;;;;;5012479;28;20033;-53
2023/01/03 11:30:49;;;;;;;1.48;0.75;;;21.80;40.40;;;;;;5016469;28;20060;-51
2023/01/03 11:33:26;;;;;;;1.42;0.88;;;21.80;40.30;;;;;;5025993;28;20103;-52
2023/01/03 11:36:06;;;;;;;1.52;1.05;;;21.80;40.40;;;;;;5018408;28;20376;-54
2023/01/03 11:38:54;;;;;;;1.73;1.00;;;21.80;40.40;;;;;;5023172;28;20025;-51
2023/01/03 11:41:43;;;;;;;4.03;1.10;;;21.80;40.40;;;;;;5034612;28;20353;-52
2023/01/03 11:44:30;;;;;;;1.30;1.08;;;21.80;40.40;;;;;;5005998;28;20029;-53
2023/01/03 11:47:19;;;;;;;3.72;1.23;;;21.80;40.40;;;;;;5003741;28;20033;-51
2023/01/03 11:50:00;;;;;;;2.58;1.20;;;21.80;40.40;;;;;;5007293;28;20054;-53
2023/01/03 11:52:43;;;;;;;1.52;0.90;;;21.80;40.40;;;;;;5005366;28;20061;-54
2023/01/03 11:55:43;;;;;;;2.03;1.00;;;21.80;40.50;;;;;;5003142;28;20065;-54
2023/01/03 11:58:42;;;;;;;3.88;1.05;;;21.80;40.50;;;;;;5009472;28;20029;-53
2023/01/03 12:01:33;;;;;;;1.75;0.93;;;21.80;40.50;;;;;;5014687;28;20032;-53
2023/01/03 12:04:24;;;;;;;1.40;0.80;;;21.80;40.40;;;;;;5028813;28;20033;-55
2023/01/03 12:07:14;;;;;;;2.30;1.10;;;21.80;40.40;;;;;;5031962;28;20108;-52
2023/01/03 12:10:17;;;;;;;1.67;0.93;;;21.80;40.40;;;;;;5029899;28;20029;-56
2023/01/03 12:13:01;;;;;;;2.08;0.90;;;21.80;40.40;;;;;;5028674;28;21818;-56
2023/01/03 12:15:57;;;;;;;1.70;0.98;;;21.80;40.40;;;;;;5032849;28;20369;-54
2023/01/03 12:18:38;;;;;;;2.50;1.00;;;21.80;40.40;;;;;;5037016;28;20037;-54
2023/01/03 12:21:32;;;;;;;1.85;0.90;;;21.80;40.40;;;;;;5035208;28;20033;-53
2023/01/03 12:24:14;;;;;;;4.05;1.00;;;21.80;40.40;;;;;;4994955;28;20073;-54
2023/01/03 12:26:46;;;;;;;1.65;0.93;;;21.80;40.40;;;;;;5015712;28;20025;-51
2023/01/03 12:29:23;;;;;;;2.15;0.95;;;21.80;40.60;;;;;;5023508;28;20422;-51
2023/01/03 12:32:07;;;;;;;1.48;0.68;;;21.90;40.80;;;;;;5020396;28;20030;-54
2023/01/03 12:35:05;;;;;;;1.55;0.75;;;21.90;40.70;;;;;;5024611;28;20024;-50
2023/01/03 12:37:37;;;;;;;1.95;0.93;;;21.90;40.70;;;;;;5025787;28;20033;-51
2023/01/03 12:40:09;;;;;;;4.63;1.00;;;21.90;40.70;;;;;;5031321;28;20045;-53
2023/01/03 12:42:37;;;;;;;1.33;0.77;;;21.90;40.70;;;;;;5027764;28;20113;-54
2023/01/03 12:45:21;;;;;;;1.13;0.73;;;22.00;40.70;;;;;;5030786;28;20022;-53
2023/01/03 12:48:13;;;;;;;1.42;0.80;;;22.00;40.80;;;;;;5007691;28;20033;-50
2023/01/03 12:50:45;;;;;;;1.85;0.75;;;22.00;40.80;;;;;;5016868;28;20038;-53
2023/01/03 12:53:41;;;;;;;2.10;0.80;;;22.00;40.70;;;;;;5030623;28;20117;-54
2023/01/03 12:56:09;;;;;;;1.88;1.05;;;22.00;40.60;;;;;;5019651;28;20373;-54
2023/01/03 12:58:50;;;;;;;2.42;0.77;;;22.00;40.60;;;;;;5026455;28;20030;-55
2023/01/03 13:01:25;;;;;;;2.65;0.95;;;22.00;40.50;;;;;;5021791;28;20124;-55
2023/01/03 13:04:05;;;;;;;1.60;1.05;;;22.00;40.40;;;;;;5026961;28;20063;-54
2023/01/03 13:06:38;;;;;;;2.92;0.70;;;22.10;40.40;;;;;;5027205;28;20025;-53
2023/01/03 13:09:19;;;;;;;1.50;1.05;;;22.10;40.40;;;;;;5025800;28;20033;-52
2023/01/03 13:11:57;;;;;;;1.63;0.90;;;22.10;40.40;;;;;;5023393;28;20045;-55
2023/01/03 13:14:25;;;;;;;5.78;1.02;;;22.00;40.30;;;;;;5018888;28;20045;-51
2023/01/03 13:16:55;;;;;;;1.58;1.20;;;22.10;40.30;;;;;;5024878;28;20041;-51
2023/01/03 13:19:21;;;;;;;1.52;0.90;;;22.00;40.30;;;;;;5029235;28;20029;-50
2023/01/03 13:21:53;;;;;;;2.20;0.70;;;22.10;40.40;;;;;;5032377;28;20092;-57
2023/01/03 13:24:38;;;;;;;2.42;0.82;;;22.10;40.60;;;;;;5028116;28;20029;-56
2023/01/03 13:27:19;;;;;;;1.65;0.80;;;22.10;40.70;;;;;;5011106;28;20409;-63
2023/01/03 13:29:48;;;;;;;2.80;1.15;;;22.10;40.90;;;;;;5019881;28;20034;-58
2023/01/03 13:32:28;;;;;;;3.85;1.00;;;22.10;40.90;;;;;;5021335;28;20364;-58
2023/01/03 13:34:56;;;;;;;3.58;1.13;;;22.20;41.10;;;;;;5023576;28;20022;-56
2023/01/03 13:37:46;;;;;;;3.08;1.00;;;22.20;41.10;;;;;;5019918;28;20030;-58
2023/01/03 13:40:28;;;;;;;2.70;1.27;;;22.30;41.10;;;;;;5032473;28;20063;-55
2023/01/03 13:43:06;;;;;;;2.92;1.10;;;22.40;41.00;;;;;;5035413;28;20029;-54
2023/01/03 13:45:32;;;;;;;3.95;0.90;;;22.50;41.00;;;;;;5036120;28;20112;-58
2023/01/03 13:48:28;;;;;;;3.17;1.00;;;22.60;40.90;;;;;;5027831;28;20117;-55
2023/01/03 13:51:26;;;;;;;1.83;0.93;;;22.70;40.90;;;;;;5027274;28;20045;-56
2023/01/03 13:53:59;;;;;;;1.65;0.98;;;22.80;41.10;;;;;;5026190;28;20039;-56
2023/01/03 13:56:31;;;;;;;4.30;0.90;;;22.80;41.20;;;;;;5022581;28;20041;-52
2023/01/03 13:59:36;;;;;;;2.05;1.10;;;22.90;41.20;;;;;;5032241;28;20040;-55
2023/01/03 14:02:08;;;;;;;3.28;1.17;;;23.00;41.10;;;;;;5029329;28;20021;-57
2023/01/03 14:04:52;;;;;;;2.33;0.90;;;23.10;40.90;;;;;;5029130;28;20346;-57
2023/01/03 14:07:56;;;;;;;2.40;0.80;;;23.20;40.90;;;;;;5027190;28;20033;-60
2023/01/03 14:10:59;;;;;;;2.08;0.85;;;23.30;40.80;;;;;;5029235;28;20044;-60
2023/01/03 14:13:45;;;;;;;1.52;0.52;;;23.30;40.50;;;;;;5031324;28;20045;-56
2023/01/03 14:16:40;;;;;;;3.70;0.88;;;23.40;40.40;;;;;;5026361;28;20040;-56